• Join FlightAware (Why Join?)
  • Login
  • US Flag 
08:35AM EDT


 

Airport Tracker/Info


-or-


 

Live Flight TrackerFlight Track Log ✈ CSZ9739 ✈ 23-Apr-2014 ✈ ZSJD / JDZ - ZSFZ / FOC

Flight Track Log - Related Links

Times and Time Zones

All times are in EDT time to prevent confusion due to time zone crossing. See the CSZ9739 flight status page for this flight to view local times or setup timezone preferences in your user account.

Time Position Orientation Groundspeed Altitude Reporting Facility
EDT Latitude Longitude Course Direction KTS MPH feet Rate Location/Type
04:58AM 28.9163 117.4949 146° Southeast  Level Estimated
04:59AM 28.8458 117.5479 147° Southeast  Level Estimated
05:00AM 28.7754 117.6008 147° Southeast  Level Estimated
05:01AM 28.7049 117.6535 147° Southeast  Level Estimated
05:02AM 28.6343 117.7063 147° Southeast  Level Estimated
05:03AM 28.5638 117.7589 147° Southeast  Level Estimated
05:04AM 28.4932 117.8115 147° Southeast  Level Estimated
05:05AM 28.4227 117.8640 147° Southeast  Level Estimated
05:06AM 28.3521 117.9164 147° Southeast  Level Estimated
05:07AM 28.2814 117.9688 147° Southeast  Level Estimated
05:08AM 28.2108 118.0211 147° Southeast  Level Estimated
05:09AM 28.1401 118.0733 147° Southeast  Level Estimated
05:10AM 28.0695 118.1255 147° Southeast  Level Estimated
05:11AM 27.9988 118.1776 147° Southeast  Level Estimated
05:12AM 27.9280 118.2296 147° Southeast  Level Estimated
05:13AM 27.8573 118.2816 147° Southeast  Level Estimated
05:14AM 27.7865 118.3334 147° Southeast  Level Estimated
05:15AM 27.7158 118.3853 147° Southeast  Level Estimated
05:16AM 27.6450 118.4370 147° Southeast  Level Estimated
05:17AM 27.5742 118.4887 147° Southeast  Level Estimated
05:18AM 27.5033 118.5403 147° Southeast  Level Estimated
05:19AM 27.4325 118.5919 147° Southeast  Level Estimated
05:20AM 27.3616 118.6434 147° Southeast  Level Estimated
05:21AM 27.2907 118.6948 147° Southeast  Level Estimated
05:22AM 27.2198 118.7461 147° Southeast  Level Estimated
05:23AM 27.1488 118.7974 147° Southeast  Level Estimated
05:24AM 27.0779 118.8486 147° Southeast  Level Estimated
05:25AM 27.0069 118.8998 147° Southeast  Level Estimated
05:26AM 26.9359 118.9509 147° Southeast  Level Estimated
05:27AM 26.8650 119.0019 147° Southeast  Level Estimated
05:28AM 26.7939 119.0529 147° Southeast  Level Estimated
05:29AM 26.7229 119.1038 147° Southeast  Level Estimated
05:30AM 26.6518 119.1546 147° Southeast  Level Estimated
05:31AM 26.5807 119.2054 147° Southeast  Level Estimated
05:32AM 26.5097 119.2561 147° Southeast  Level Estimated
05:33AM 26.4385 119.3068 147° Southeast  Level Estimated
05:34AM 26.3674 119.3574 147° Southeast  Level Estimated
05:35AM 26.2963 119.4079 148° Southeast  Level Estimated
05:36AM 26.2251 119.4584 148° Southeast  Level Estimated
05:37AM 26.1539 119.5088 148° Southeast  Level Estimated
05:38AM 26.0827 119.5591 148° Southeast  Level Estimated
05:39AM 26.0115 119.6094 148° Southeast  Level Estimated
05:40AM 25.9403 119.6596 148° Southeast  Level Estimated
05:41AM 25.9351 119.6633 148° Southeast  Level Estimated
05:42AM 25.9351 119.6633 North  Level Estimated
05:43AM 25.9351 119.6633 North  Level Estimated
05:44AM 25.9351 119.6633 North  Level Estimated
05:45AM 25.9351 119.6633 North  Level Estimated
05:46AM 25.9351 119.6633 North  Level Estimated
05:47AM 25.9351 119.6633 North  Level Estimated
05:48AM 25.9351 119.6633 North  Level Estimated
05:49AM 25.9351 119.6633 North  Level Estimated
05:50AM 25.9351 119.6633 North  Level Estimated
05:51AM 25.9351 119.6633 North  Level Estimated
05:52AM 25.9351 119.6633 North  Level Estimated
05:53AM 25.9351 119.6633 North  Level Estimated
05:54AM 25.9351 119.6633 North  Level Estimated
05:55AM 25.9351 119.6633 North  Level Estimated
05:56AM 25.9351 119.6633 North  Level Estimated